Have a Safe July 4th! 

Flight Track Log - Related Links

Times and Time Zones

All times are in EST time to prevent confusion due to time zone crossing. See the N373LD flight status page for this flight to view local times or setup timezone preferences in your user account.

Time Position Orientation Groundspeed Altitude Reporting Facility
EST Latitude Longitude Course Direction KTS MPH feet Rate Location/Type
Mon 11:37:34 AM 39.5500 -104.8833 North 139 160 7,600  Level Denver TRACON
Mon 11:38:20 AM 39.5797 -104.8806 North 137 158 8,400 1,111 Climbing Denver Center
Mon 11:39:22 AM 39.6250 -104.8753 North 160 184 9,600 1,306 Climbing Denver Center
Mon 11:40:24 AM 39.6644 -104.8747 North 146 168 11,100 1,296 Climbing Denver Center
Mon 11:41:27 AM 39.7083 -104.8722 North 147 169 12,300 1,152 Climbing Denver Center
Mon 11:42:29 AM 39.7519 -104.8694 North 155 178 13,500 1,113 Climbing Denver Center
Mon 11:43:31 AM 39.8006 -104.8658 North 161 185 14,600 1,016 Climbing Denver Center
Mon 11:44:33 AM 39.8475 -104.8625 North 168 193 15,600 968 Climbing Denver Center
Mon 11:45:35 AM 39.8964 -104.8589 North 175 201 16,600 968 Climbing Denver Center
Mon 11:46:37 AM 39.9497 -104.8550 North 178 205 17,600 823 Climbing Denver Center
Mon 11:47:39 AM 40.0022 -104.8519 North 188 216 18,300 919 Climbing Denver Center
Mon 11:48:41 AM 40.0578 -104.8486 North 184 212 19,500 968 Climbing Denver Center
Mon 11:49:43 AM 40.1114 -104.8450 North 193 222 20,300 871 Climbing Denver Center
Mon 11:50:45 AM 40.1683 -104.8414 North 190 219 21,300 912 Climbing Denver Center
Mon 11:51:48 AM 40.2233 -104.8369 North 199 229 22,200 919 Climbing Denver Center
Mon 11:52:49 AM 40.2758 -104.8342 North 186 214 23,200 878 Climbing Denver Center
Mon 11:53:51 AM 40.3367 -104.8306 North 204 235 24,000 823 Climbing Denver Center
Mon 11:54:53 AM 40.3947 -104.8258 North 199 229 24,900 823 Climbing Denver Center
Mon 11:55:55 AM 40.4492 -104.8228 North 197 227 25,700 528 Climbing Denver Center
Mon 11:56:58 AM 40.5078 -104.8197 North 213 245 26,000 144 Climbing Denver Center
Mon 11:58:00 AM 40.5742 -104.8147 North 238 274 26,000  Level Denver Center
Mon 11:59:02 AM 40.6439 -104.8108 North 252 290 26,000  Level Denver Center
Mon 12:00:04 PM 40.7150 -104.8058 North 252 290 26,000  Level Denver Center
Mon 12:01:06 PM 40.7953 -104.7989 North 241 277 26,000  Level Denver Center
Mon 12:02:08 PM 40.8642 -104.7956 North 247 284 26,000  Level Denver Center
Mon 12:03:10 PM 40.9339 -104.7892 North 251 289 26,000  Level Denver Center
Mon 12:04:12 PM 41.0072 -104.7839 North 252 290 26,000  Level Denver Center
Mon 12:05:14 PM 41.0753 -104.7781 North 254 292 26,000  Level Denver Center
Mon 12:06:16 PM 41.1539 -104.7736 North 253 291 26,000  Level Denver Center
Mon 12:07:18 PM 41.2206 -104.7711 North 250 288 26,000  Level Denver Center
Mon 12:08:20 PM 41.2928 -104.7886 350° North 237 273 26,000  Level Denver Center
Mon 12:09:22 PM 41.3567 -104.7989 353° North 240 276 26,000  Level Denver Center
Mon 12:10:24 PM 41.4314 -104.8150 351° North 242 278 26,000  Level Denver Center
Mon 12:11:27 PM 41.4942 -104.8272 352° North 239 275 26,000  Level Denver Center
Mon 12:12:29 PM 41.5678 -104.8428 351° North 240 276 26,000  Level Denver Center
Mon 12:13:31 PM 41.6281 -104.8531 353° North 231 266 26,000  Level Denver Center
Mon 12:14:33 PM 41.6981 -104.8672 351° North 227 261 26,000  Level Denver Center
Mon 12:15:35 PM 41.7600 -104.8797 351° North 233 268 26,000  Level Denver Center
Mon 12:16:37 PM 41.8306 -104.8961 350° North 230 265 26,000  Level Denver Center
Mon 12:17:39 PM 41.8906 -104.9083 351° North 227 261 26,000  Level Denver Center
Mon 12:18:41 PM 41.9650 -104.9222 352° North 240 276 26,000  Level Denver Center
Mon 12:19:43 PM 42.0281 -104.9358 351° North 240 276 26,000  Level Denver Center
Mon 12:20:45 PM 42.0892 -104.9481 352° North 233 268 26,000  Level Denver Center
Mon 12:21:47 PM 42.1625 -104.9622 352° North 237 273 26,000  Level Denver Center
Mon 12:22:49 PM 42.2233 -104.9753 351° North 234 269 26,000  Level Denver Center
Mon 12:23:51 PM 42.2942 -104.9908 351° North 231 266 26,000  Level Denver Center
Mon 12:24:53 PM 42.3578 -105.0025 352° North 236 272 26,000  Level Denver Center
Mon 12:25:55 PM 42.4333 -105.0172 352° North 242 278 26,000  Level Denver Center
Mon 12:26:57 PM 42.4981 -105.0303 352° North 244 281 26,000  Level Denver Center
Mon 12:28:00 PM 42.5736 -105.0458 351° North 244 281 26,000  Level Denver Center
Mon 12:29:02 PM 42.6383 -105.0603 351° North 245 282 26,000  Level Denver Center
Mon 12:30:04 PM 42.7028 -105.0728 352° North 244 281 26,000  Level Denver Center
Mon 12:31:06 PM 42.7772 -105.0875 352° North 241 277 26,000  Level Denver Center
Mon 12:32:08 PM 42.8397 -105.1006 351° North 239 275 26,000  Level Denver Center
Mon 12:33:09 PM 42.9031 -105.1131 352° North 239 275 26,000  Level Denver Center
Mon 12:34:12 PM 42.9744 -105.1278 351° North 236 272 26,000  Level Denver Center
Mon 12:35:14 PM 43.0458 -105.1425 351° North 233 268 26,000  Level Denver Center
Mon 12:36:16 PM 43.1053 -105.1550 351° North 229 264 26,000  Level Denver Center
Mon 12:37:18 PM 43.1764 -105.1703 351° North 230 265 26,000  Level Denver Center
Mon 12:38:20 PM 43.2369 -105.1825 352° North 230 265 26,000  Level Denver Center
Mon 12:39:22 PM 43.3075 -105.1967 352° North 229 264 26,000  Level Denver Center
Mon 12:40:24 PM 43.3678 -105.2094 351° North 229 264 26,000  Level Denver Center
Mon 12:41:26 PM 43.4378 -105.2222 352° North 227 261 26,000  Level Denver Center
Mon 12:42:28 PM 43.4981 -105.2347 351° North 228 262 26,000  Level Denver Center
Mon 12:43:30 PM 43.5597 -105.2472 352° North 231 266 26,000  Level Denver Center
Mon 12:44:32 PM 43.6311 -105.2617 352° North 232 267 26,000  Level Denver Center
Mon 12:45:34 PM 43.6931 -105.2756 351° North 233 268 26,000  Level Denver Center
Mon 12:46:36 PM 43.7661 -105.2894 352° North 236 272 26,000  Level Denver Center
Mon 12:47:38 PM 43.8264 -105.3050 349° North 233 268 26,000  Level Denver Center
Mon 12:48:41 PM 43.8975 -105.3189 352° North 231 266 26,000  Level Denver Center
Mon 12:49:43 PM 43.9569 -105.3311 352° North 227 261 26,000  Level Denver Center
Mon 12:50:45 PM 44.0267 -105.3467 351° North 227 261 26,000  Level Denver Center
Mon 12:51:47 PM 44.0858 -105.3603 351° North 226 260 26,000  Level Denver Center
Mon 12:52:49 PM 44.1561 -105.3742 352° North 228 262 26,000  Level Denver Center
Mon 12:53:51 PM 44.2167 -105.3875 351° North 229 264 26,000  Level Denver Center
Mon 12:54:53 PM 44.2856 -105.4028 351° North 225 259 26,000  Level Denver Center
Mon 12:55:55 PM 44.3447 -105.4158 351° North 225 259 26,000  Level Denver Center
Mon 12:56:57 PM 44.4136 -105.4306 351° North 224 258 26,000  Level Denver Center
Mon 12:57:59 PM 44.4733 -105.4433 351° North 226 260 26,000  Level Denver Center
Mon 12:59:01 PM 44.5367 -105.4589 350° North 226 260 26,000  Level Denver Center
Mon 01:00:05 PM 44.5994 -105.4711 352° North 227 261 26,000  Level Denver Center
Mon 01:01:07 PM 44.6625 -105.4847 351° North 229 264 26,000  Level Denver Center
Mon 01:02:09 PM 44.7361 -105.5022 350° North 225 259 26,000  Level Denver Center
Mon 01:03:11 PM 44.7986 -105.5158 351° North 226 260 26,000  Level Denver Center
Mon 01:04:13 PM 44.8611 -105.5294 351° North 227 261 26,000  Level Denver Center
Mon 01:05:15 PM 44.9228 -105.5436 351° North 227 261 26,000  Level Denver Center
Mon 01:06:09 PM 44.9858 -105.5556 352° North 228 262 26,000  Level Salt Lake Center
Mon 01:07:11 PM 45.0481 -105.5706 350° North 227 261 26,000  Level Salt Lake Center
Mon 01:08:13 PM 45.1125 -105.5839 352° North 232 267 26,000  Level Salt Lake Center
Mon 01:09:15 PM 45.1758 -105.6000 350° North 232 267 26,000  Level Salt Lake Center
Mon 01:10:16 PM 45.2367 -105.6217 346° North 228 262 26,000  Level Salt Lake Center
Mon 01:11:18 PM 45.2961 -105.6450 345° North 225 259 26,000  Level Salt Lake Center
Mon 01:12:20 PM 45.3681 -105.6725 345° North 223 257 26,000  Level Salt Lake Center
Mon 01:13:22 PM 45.4281 -105.6942 346° North 224 258 26,000  Level Salt Lake Center
Mon 01:14:23 PM 45.4878 -105.7175 345° North 224 258 26,000  Level Salt Lake Center
Mon 01:15:25 PM 45.5467 -105.7411 344° North 221 254 26,000  Level Salt Lake Center
Mon 01:16:27 PM 45.6053 -105.7617 346° North 218 251 26,000  Level Salt Lake Center
Mon 01:17:29 PM 45.6625 -105.7833 345° North 215 247 26,000 -98 Level Salt Lake Center
Mon 01:18:30 PM 45.7333 -105.8103 345° North 218 251 25,800 -976 Descending Salt Lake Center
Mon 01:19:32 PM 45.7931 -105.8358 343° North 222 255 24,000 -1,742 Descending Salt Lake Center
Mon 01:20:34 PM 45.8528 -105.8611 344° North 224 258 22,200 -1,742 Descending Salt Lake Center
Mon 01:21:36 PM 45.9192 -105.8569 North 233 268 20,400 -1,694 Descending Salt Lake Center
Mon 01:22:38 PM 45.9794 -105.8589 359° North 229 264 18,700 -1,707 Descending Salt Lake Center
Mon 01:23:39 PM 46.0392 -105.8625 358° North 223 257 16,900 -1,770 Descending Salt Lake Center
Mon 01:25:00 PM 46.1250 -105.8647 359° North  Level FlightAware Approximate
Mon 01:32:00 PM 46.4167 -105.8833 347° North  Level FlightAware Approximate
Mon 01:33:00 PM 46.4280 -105.8863 347° North  Level Estimated
Mon 01:34:00 PM 46.4280 -105.8863 347° North  Level Estimated
Mon 01:35:00 PM 46.4280 -105.8863 347° North  Level Estimated
Mon 01:36:00 PM 46.4280 -105.8863 347° North  Level Estimated
Mon 01:37:00 PM 46.4280 -105.8863 347° North  Level Estimated
Mon 01:38:00 PM 46.4280 -105.8863 347° North  Level Estimated
Mon 01:39:00 PM 46.4280 -105.8863 347° North  Level Estimated
Mon 01:40:00 PM 46.4280 -105.8863 347° North  Level Estimated
Mon 01:41:00 PM 46.4280 -105.8863 347° North  Level Estimated
Mon 01:42:00 PM 46.4280 -105.8863 347° North  Level Estimated
Mon 01:43:00 PM 46.4280 -105.8863 347° North  Level Estimated
Mon 01:44:00 PM 46.4280 -105.8863 347° North  Level Estimated

Login

Don't have an account? Register now (free) for customized features, flight alerts, and more!